Terminal Aerodrome Forecast
Issued by NWS

Home | Current Version | Previous Version | Text Only | Print | Product List | Glossary On
Versions: 1 2 3 4 5 6 7 8 9 10 11 12
000
FTUS43 KEAX 312300
TAFMKC
TAF
KMKC 312331Z 0100/0124 17010KT 4SM -RA BR OVC015
     FM011000 VRB04KT 3SM -RASN BR OVC008
     FM011500 33016G24KT 2SM -SN OVC007
     FM011800 34018G26KT 5SM -SN OVC020=

USA.gov is the U.S. government's official web portal to all federal, state and local government web resources and services.